الصفحة الرئيسية
METAR-TAF:

METAR-TAF

مطار :

ساري, إيران

دائرة عرض: 36-38-09N, خط طول: 53-11-37E, ارتفاع: 11 متر

مراقبة الطقس الحالي

تاريخ ووقت الإصدار 42 دقيقة قبل الساعة 08:00UTC
ريح 12 عقدة من الغرب/الشمال الغربي
درجة الحرارة 32°درجة مئوية
الرطوبة 49%
ضغط 1010 hPa
الرؤية 10 كم أو أكثر
الغيوم لا تقل 1500 م ولا وجود لمزنة ركامية السحاب الأسود

METAR: OINZ 140800Z 30012KT CAVOK 32/20 Q1010

زمن: 13:12 (08:42 UTC)

توقعات

تاريخ ووقت الإصدار 6ساعات و 42 دقيقة قبل الساعة 02:00UTC
التوقعات صالحة من14 الساعة 03 UTC إلى 14 الساعة 12 UTC
ريح 6 عقدة من الشمال/الشمال الشرقي
الرؤية: 7000 متر
مؤقت
من 14 الساعة 03 UTC إلى 14 الساعة 05 UTC
الرؤية: 4000 متر
غشاء
مؤقت
من 14 الساعة 08 UTC إلى 14 الساعة 12 UTC
ريح 14 عقدة من الشمال الغربي
الرؤية: 5000 متر
غيوم متفرقة على ارتفاع 3000 قدم, مزنة ركامية.
غيوم مفككة على ارتفاع 3500 قدم
غيوم مفككة على ارتفاع 8000 قدم
عاصفة رعدية, مطر,

TAF: OINZ 140200Z 1403/1412 03006KT 7000 NSC TEMPO 1403/1405 4000 BR TEMPO 1408/1412 32014KT 5000 TSRA SCT030CB BKN035 BKN080

أرصاد الطقس والتوقعات من أكثر من 4000 مطار (تقارير الطقس للمطار METAR والتنبؤ بالطقس بالمطارTAF).

المحطات المتاحة هي النقط الصفراء والحمراء على الخريطة.

حرك المؤشر فوق النقطة لمعرفة اسم المحطة.

ثم انقر لمعرفة أرصاد وتوقعات الطقس.

لتغيير الخارطة: اضغط على الأزرار الخضراء مع رمز الصليب الأسود للتكبير. على الزر الأخضر مع شرطة للتصغير، أو على الأسهم الخضراء للخرائط المجاورة.


METAR-TAF: